sensor_id;sensor_type;location;lat;lon;timestamp;temperature;humidity
26947;DHT22;14501;52.282;10.560;2023-07-09T00:01:49;17.80;99.90
26947;DHT22;14501;52.282;10.560;2023-07-09T00:04:15;17.80;99.90
26947;DHT22;14501;52.282;10.560;2023-07-09T00:06:41;17.80;99.90
26947;DHT22;14501;52.282;10.560;2023-07-09T00:09:14;17.80;99.90
26947;DHT22;14501;52.282;10.560;2023-07-09T00:11:41;17.80;99.90
26947;DHT22;14501;52.282;10.560;2023-07-09T00:14:12;17.90;99.90
26947;DHT22;14501;52.282;10.560;2023-07-09T00:16:39;17.90;99.90
26947;DHT22;14501;52.282;10.560;2023-07-09T00:19:13;18.00;99.90
26947;DHT22;14501;52.282;10.560;2023-07-09T00:21:41;18.00;99.90
26947;DHT22;14501;52.282;10.560;2023-07-09T00:24:07;18.10;99.90
26947;DHT22;14501;52.282;10.560;2023-07-09T00:26:36;18.20;99.90
26947;DHT22;14501;52.282;10.560;2023-07-09T00:29:04;18.30;99.90
26947;DHT22;14501;52.282;10.560;2023-07-09T00:31:29;18.40;99.90
26947;DHT22;14501;52.282;10.560;2023-07-09T00:33:55;18.50;99.90
26947;DHT22;14501;52.282;10.560;2023-07-09T00:36:28;18.60;99.90
26947;DHT22;14501;52.282;10.560;2023-07-09T00:38:54;18.70;99.90
26947;DHT22;14501;52.282;10.560;2023-07-09T00:41:22;18.70;99.90
26947;DHT22;14501;52.282;10.560;2023-07-09T00:43:49;18.70;99.90
26947;DHT22;14501;52.282;10.560;2023-07-09T00:49:10;18.60;99.90
26947;DHT22;14501;52.282;10.560;2023-07-09T00:51:44;18.60;99.90
26947;DHT22;14501;52.282;10.560;2023-07-09T00:54:37;18.50;99.90
26947;DHT22;14501;52.282;10.560;2023-07-09T00:57:14;18.40;99.90
26947;DHT22;14501;52.282;10.560;2023-07-09T00:59:45;18.20;99.90
26947;DHT22;14501;52.282;10.560;2023-07-09T01:02:13;18.20;99.90
26947;DHT22;14501;52.282;10.560;2023-07-09T01:04:40;18.10;99.90
26947;DHT22;14501;52.282;10.560;2023-07-09T01:07:07;18.00;99.90
26947;DHT22;14501;52.282;10.560;2023-07-09T01:09:33;17.90;99.90
26947;DHT22;14501;52.282;10.560;2023-07-09T01:12:03;17.90;99.90
26947;DHT22;14501;52.282;10.560;2023-07-09T01:14:31;17.80;99.90
26947;DHT22;14501;52.282;10.560;2023-07-09T01:17:01;17.80;99.90
26947;DHT22;14501;52.282;10.560;2023-07-09T01:19:29;17.70;99.90
26947;DHT22;14501;52.282;10.560;2023-07-09T01:21:56;17.70;99.90
26947;DHT22;14501;52.282;10.560;2023-07-09T01:24:47;17.70;99.90
26947;DHT22;14501;52.282;10.560;2023-07-09T01:27:13;17.60;99.90
26947;DHT22;14501;52.282;10.560;2023-07-09T01:29:39;17.50;99.90
26947;DHT22;14501;52.282;10.560;2023-07-09T01:32:07;17.50;99.90
26947;DHT22;14501;52.282;10.560;2023-07-09T01:34:33;17.50;99.90
26947;DHT22;14501;52.282;10.560;2023-07-09T01:36:59;17.40;99.90
26947;DHT22;14501;52.282;10.560;2023-07-09T01:39:26;17.40;99.90
26947;DHT22;14501;52.282;10.560;2023-07-09T01:41:53;17.30;99.90
26947;DHT22;14501;52.282;10.560;2023-07-09T01:44:19;17.30;99.90
26947;DHT22;14501;52.282;10.560;2023-07-09T01:46:45;17.20;99.90
26947;DHT22;14501;52.282;10.560;2023-07-09T01:49:11;17.20;99.90
26947;DHT22;14501;52.282;10.560;2023-07-09T01:51:37;17.00;99.90
26947;DHT22;14501;52.282;10.560;2023-07-09T01:54:04;17.00;99.90
26947;DHT22;14501;52.282;10.560;2023-07-09T01:56:30;16.90;99.90
26947;DHT22;14501;52.282;10.560;2023-07-09T01:58:55;16.80;99.90
26947;DHT22;14501;52.282;10.560;2023-07-09T02:01:28;16.70;99.90
26947;DHT22;14501;52.282;10.560;2023-07-09T02:03:54;16.60;99.90
26947;DHT22;14501;52.282;10.560;2023-07-09T02:06:20;16.60;99.90
26947;DHT22;14501;52.282;10.560;2023-07-09T02:08:49;16.60;99.90
26947;DHT22;14501;52.282;10.560;2023-07-09T02:11:15;16.50;99.90
26947;DHT22;14501;52.282;10.560;2023-07-09T02:13:41;16.50;99.90
26947;DHT22;14501;52.282;10.560;2023-07-09T02:16:06;16.40;99.90
26947;DHT22;14501;52.282;10.560;2023-07-09T02:18:32;16.40;99.90
26947;DHT22;14501;52.282;10.560;2023-07-09T02:20:58;16.30;99.90
26947;DHT22;14501;52.282;10.560;2023-07-09T02:23:27;16.30;99.90
26947;DHT22;14501;52.282;10.560;2023-07-09T02:25:53;16.30;99.90
26947;DHT22;14501;52.282;10.560;2023-07-09T02:28:19;16.20;99.90
26947;DHT22;14501;52.282;10.560;2023-07-09T02:30:45;16.20;99.90
26947;DHT22;14501;52.282;10.560;2023-07-09T02:33:11;16.20;99.90
26947;DHT22;14501;52.282;10.560;2023-07-09T02:35:36;16.20;99.90
26947;DHT22;14501;52.282;10.560;2023-07-09T02:38:03;16.20;99.90
26947;DHT22;14501;52.282;10.560;2023-07-09T02:40:29;16.20;99.90
26947;DHT22;14501;52.282;10.560;2023-07-09T02:42:54;16.20;99.90
26947;DHT22;14501;52.282;10.560;2023-07-09T02:45:20;16.20;99.90
26947;DHT22;14501;52.282;10.560;2023-07-09T02:47:46;16.20;99.90
26947;DHT22;14501;52.282;10.560;2023-07-09T02:50:12;16.20;99.90
26947;DHT22;14501;52.282;10.560;2023-07-09T02:52:38;16.00;99.90
26947;DHT22;14501;52.282;10.560;2023-07-09T02:55:04;16.00;99.90
26947;DHT22;14501;52.282;10.560;2023-07-09T02:57:29;16.00;99.90
26947;DHT22;14501;52.282;10.560;2023-07-09T02:59:55;15.90;99.90
26947;DHT22;14501;52.282;10.560;2023-07-09T03:02:21;15.90;99.90
26947;DHT22;14501;52.282;10.560;2023-07-09T03:04:46;15.90;99.90
26947;DHT22;14501;52.282;10.560;2023-07-09T03:07:12;15.80;99.90
26947;DHT22;14501;52.282;10.560;2023-07-09T03:09:38;15.80;99.90
26947;DHT22;14501;52.282;10.560;2023-07-09T03:12:04;15.80;99.90
26947;DHT22;14501;52.282;10.560;2023-07-09T03:14:29;15.70;99.90
26947;DHT22;14501;52.282;10.560;2023-07-09T03:16:55;15.80;99.90
26947;DHT22;14501;52.282;10.560;2023-07-09T03:19:21;15.70;99.90
26947;DHT22;14501;52.282;10.560;2023-07-09T03:21:47;15.70;99.90
26947;DHT22;14501;52.282;10.560;2023-07-09T03:24:13;15.60;99.90
26947;DHT22;14501;52.282;10.560;2023-07-09T03:26:44;15.60;99.90
26947;DHT22;14501;52.282;10.560;2023-07-09T03:29:10;15.60;99.90
26947;DHT22;14501;52.282;10.560;2023-07-09T03:31:35;15.70;99.90
26947;DHT22;14501;52.282;10.560;2023-07-09T03:34:01;15.60;99.90
26947;DHT22;14501;52.282;10.560;2023-07-09T03:36:27;15.60;99.90
26947;DHT22;14501;52.282;10.560;2023-07-09T03:38:53;15.60;99.90
26947;DHT22;14501;52.282;10.560;2023-07-09T03:41:18;15.60;99.90
26947;DHT22;14501;52.282;10.560;2023-07-09T03:43:44;15.60;99.90
26947;DHT22;14501;52.282;10.560;2023-07-09T03:46:10;15.60;99.90
26947;DHT22;14501;52.282;10.560;2023-07-09T03:48:35;15.60;99.90
26947;DHT22;14501;52.282;10.560;2023-07-09T03:51:01;15.60;99.90
26947;DHT22;14501;52.282;10.560;2023-07-09T03:53:26;15.70;99.90
26947;DHT22;14501;52.282;10.560;2023-07-09T03:55:54;15.70;99.90
26947;DHT22;14501;52.282;10.560;2023-07-09T03:58:20;15.80;99.90
26947;DHT22;14501;52.282;10.560;2023-07-09T04:00:45;15.80;99.90
26947;DHT22;14501;52.282;10.560;2023-07-09T04:03:11;15.90;99.90
26947;DHT22;14501;52.282;10.560;2023-07-09T04:05:37;15.90;99.90
26947;DHT22;14501;52.282;10.560;2023-07-09T04:08:03;16.00;99.90
26947;DHT22;14501;52.282;10.560;2023-07-09T04:10:29;16.10;99.90
26947;DHT22;14501;52.282;10.560;2023-07-09T04:12:55;16.10;99.90
26947;DHT22;14501;52.282;10.560;2023-07-09T04:15:21;16.20;99.90
26947;DHT22;14501;52.282;10.560;2023-07-09T04:17:47;16.30;99.90
26947;DHT22;14501;52.282;10.560;2023-07-09T04:20:12;16.60;99.90
26947;DHT22;14501;52.282;10.560;2023-07-09T04:22:39;16.50;99.90
26947;DHT22;14501;52.282;10.560;2023-07-09T04:25:06;16.60;99.90
26947;DHT22;14501;52.282;10.560;2023-07-09T04:27:33;16.70;99.90
26947;DHT22;14501;52.282;10.560;2023-07-09T04:29:59;16.80;99.90
26947;DHT22;14501;52.282;10.560;2023-07-09T04:32:25;16.90;99.90
26947;DHT22;14501;52.282;10.560;2023-07-09T04:34:50;17.00;99.90
26947;DHT22;14501;52.282;10.560;2023-07-09T04:37:16;17.20;99.90
26947;DHT22;14501;52.282;10.560;2023-07-09T04:39:43;17.30;99.90
26947;DHT22;14501;52.282;10.560;2023-07-09T04:42:11;17.40;99.90
26947;DHT22;14501;52.282;10.560;2023-07-09T04:44:37;17.50;99.90
26947;DHT22;14501;52.282;10.560;2023-07-09T04:47:03;17.60;99.90
26947;DHT22;14501;52.282;10.560;2023-07-09T04:49:29;17.80;99.90
26947;DHT22;14501;52.282;10.560;2023-07-09T04:51:54;17.90;99.90
26947;DHT22;14501;52.282;10.560;2023-07-09T04:54:23;18.10;99.90
26947;DHT22;14501;52.282;10.560;2023-07-09T04:56:49;18.20;99.90
26947;DHT22;14501;52.282;10.560;2023-07-09T04:59:14;18.30;99.90
26947;DHT22;14501;52.282;10.560;2023-07-09T05:01:40;18.50;99.90
26947;DHT22;14501;52.282;10.560;2023-07-09T05:04:06;18.60;99.90
26947;DHT22;14501;52.282;10.560;2023-07-09T05:06:32;18.80;99.90
26947;DHT22;14501;52.282;10.560;2023-07-09T05:08:58;18.90;99.90
26947;DHT22;14501;52.282;10.560;2023-07-09T05:11:24;19.20;99.90
26947;DHT22;14501;52.282;10.560;2023-07-09T05:13:49;19.30;99.90
26947;DHT22;14501;52.282;10.560;2023-07-09T05:16:15;19.50;99.90
26947;DHT22;14501;52.282;10.560;2023-07-09T05:18:41;19.70;99.90
26947;DHT22;14501;52.282;10.560;2023-07-09T05:21:06;20.00;99.90
26947;DHT22;14501;52.282;10.560;2023-07-09T05:23:32;20.00;99.90
26947;DHT22;14501;52.282;10.560;2023-07-09T05:25:59;20.30;99.90
26947;DHT22;14501;52.282;10.560;2023-07-09T05:28:25;20.50;99.90
26947;DHT22;14501;52.282;10.560;2023-07-09T05:30:50;20.70;99.90
26947;DHT22;14501;52.282;10.560;2023-07-09T05:33:17;20.70;99.90
26947;DHT22;14501;52.282;10.560;2023-07-09T05:35:44;20.90;99.90
26947;DHT22;14501;52.282;10.560;2023-07-09T05:38:10;21.10;99.90
26947;DHT22;14501;52.282;10.560;2023-07-09T05:40:35;21.30;99.90
26947;DHT22;14501;52.282;10.560;2023-07-09T05:43:01;21.40;99.90
26947;DHT22;14501;52.282;10.560;2023-07-09T05:45:27;21.50;99.90
26947;DHT22;14501;52.282;10.560;2023-07-09T05:47:53;21.70;99.90
26947;DHT22;14501;52.282;10.560;2023-07-09T05:50:18;22.30;99.90
26947;DHT22;14501;52.282;10.560;2023-07-09T05:52:44;22.10;99.90
26947;DHT22;14501;52.282;10.560;2023-07-09T05:55:09;22.80;99.90
26947;DHT22;14501;52.282;10.560;2023-07-09T05:57:35;24.70;99.90
26947;DHT22;14501;52.282;10.560;2023-07-09T06:00:01;26.90;99.90
26947;DHT22;14501;52.282;10.560;2023-07-09T06:02:26;29.20;99.90
26947;DHT22;14501;52.282;10.560;2023-07-09T06:04:52;31.90;99.90
26947;DHT22;14501;52.282;10.560;2023-07-09T06:07:18;34.00;97.10
26947;DHT22;14501;52.282;10.560;2023-07-09T06:09:46;35.60;91.80
26947;DHT22;14501;52.282;10.560;2023-07-09T06:12:13;36.50;86.00
26947;DHT22;14501;52.282;10.560;2023-07-09T06:14:38;37.50;80.50
26947;DHT22;14501;52.282;10.560;2023-07-09T06:17:04;38.10;78.40
26947;DHT22;14501;52.282;10.560;2023-07-09T06:19:30;38.90;75.00
26947;DHT22;14501;52.282;10.560;2023-07-09T06:21:56;39.50;73.40
26947;DHT22;14501;52.282;10.560;2023-07-09T06:24:22;40.00;71.50
26947;DHT22;14501;52.282;10.560;2023-07-09T06:26:48;40.00;68.60
26947;DHT22;14501;52.282;10.560;2023-07-09T06:29:13;39.70;67.40
26947;DHT22;14501;52.282;10.560;2023-07-09T06:31:39;39.70;67.20
26947;DHT22;14501;52.282;10.560;2023-07-09T06:34:06;39.60;66.30
26947;DHT22;14501;52.282;10.560;2023-07-09T06:36:35;39.20;66.50
26947;DHT22;14501;52.282;10.560;2023-07-09T06:39:01;39.50;67.00
26947;DHT22;14501;52.282;10.560;2023-07-09T06:41:27;39.50;63.60
26947;DHT22;14501;52.282;10.560;2023-07-09T06:43:53;39.40;63.80
26947;DHT22;14501;52.282;10.560;2023-07-09T06:46:20;38.40;65.20
26947;DHT22;14501;52.282;10.560;2023-07-09T06:48:45;37.40;66.90
26947;DHT22;14501;52.282;10.560;2023-07-09T06:51:11;38.40;66.00
26947;DHT22;14501;52.282;10.560;2023-07-09T06:53:37;38.60;66.20
26947;DHT22;14501;52.282;10.560;2023-07-09T06:56:03;39.60;66.60
26947;DHT22;14501;52.282;10.560;2023-07-09T06:58:31;39.70;66.10
26947;DHT22;14501;52.282;10.560;2023-07-09T07:00:57;40.60;63.80
26947;DHT22;14501;52.282;10.560;2023-07-09T07:03:24;40.40;64.50
26947;DHT22;14501;52.282;10.560;2023-07-09T07:05:52;40.60;65.90
26947;DHT22;14501;52.282;10.560;2023-07-09T07:08:20;40.20;63.00
26947;DHT22;14501;52.282;10.560;2023-07-09T07:10:48;40.20;63.80
26947;DHT22;14501;52.282;10.560;2023-07-09T07:13:13;39.60;63.90
26947;DHT22;14501;52.282;10.560;2023-07-09T07:15:39;40.50;64.10
26947;DHT22;14501;52.282;10.560;2023-07-09T07:18:06;41.10;63.80
26947;DHT22;14501;52.282;10.560;2023-07-09T07:20:32;41.80;64.40
26947;DHT22;14501;52.282;10.560;2023-07-09T07:22:57;42.50;65.70
26947;DHT22;14501;52.282;10.560;2023-07-09T07:25:24;42.80;60.50
26947;DHT22;14501;52.282;10.560;2023-07-09T07:27:50;43.40;63.00
26947;DHT22;14501;52.282;10.560;2023-07-09T07:30:15;43.30;59.10
26947;DHT22;14501;52.282;10.560;2023-07-09T07:32:45;44.00;60.40
26947;DHT22;14501;52.282;10.560;2023-07-09T07:37:39;44.60;59.10
26947;DHT22;14501;52.282;10.560;2023-07-09T07:40:05;44.40;56.80
26947;DHT22;14501;52.282;10.560;2023-07-09T07:42:31;44.60;60.60
26947;DHT22;14501;52.282;10.560;2023-07-09T07:44:57;44.60;56.90
26947;DHT22;14501;52.282;10.560;2023-07-09T07:47:22;44.30;58.10
26947;DHT22;14501;52.282;10.560;2023-07-09T07:49:48;43.70;56.10
26947;DHT22;14501;52.282;10.560;2023-07-09T07:52:14;43.30;57.20
26947;DHT22;14501;52.282;10.560;2023-07-09T07:54:39;43.60;58.60
26947;DHT22;14501;52.282;10.560;2023-07-09T07:57:06;43.50;56.30
26947;DHT22;14501;52.282;10.560;2023-07-09T08:02:01;43.00;58.10
26947;DHT22;14501;52.282;10.560;2023-07-09T08:04:27;43.80;59.70
26947;DHT22;14501;52.282;10.560;2023-07-09T08:06:53;44.50;59.70
26947;DHT22;14501;52.282;10.560;2023-07-09T08:09:19;44.80;57.50
26947;DHT22;14501;52.282;10.560;2023-07-09T08:11:44;45.00;57.30
26947;DHT22;14501;52.282;10.560;2023-07-09T08:14:10;45.50;55.10
26947;DHT22;14501;52.282;10.560;2023-07-09T08:16:36;45.90;56.20
26947;DHT22;14501;52.282;10.560;2023-07-09T08:19:02;45.90;55.30
26947;DHT22;14501;52.282;10.560;2023-07-09T08:21:27;45.50;55.60
26947;DHT22;14501;52.282;10.560;2023-07-09T08:23:53;45.60;57.30
26947;DHT22;14501;52.282;10.560;2023-07-09T08:26:19;45.40;55.90
26947;DHT22;14501;52.282;10.560;2023-07-09T08:28:44;44.70;57.70
26947;DHT22;14501;52.282;10.560;2023-07-09T08:31:10;45.00;57.20
26947;DHT22;14501;52.282;10.560;2023-07-09T08:33:36;45.40;59.00
26947;DHT22;14501;52.282;10.560;2023-07-09T08:36:01;45.90;57.40
26947;DHT22;14501;52.282;10.560;2023-07-09T08:38:27;46.70;54.80
26947;DHT22;14501;52.282;10.560;2023-07-09T08:43:51;46.90;56.30
26947;DHT22;14501;52.282;10.560;2023-07-09T08:49:14;48.10;55.40
26947;DHT22;14501;52.282;10.560;2023-07-09T08:51:43;48.00;54.50
26947;DHT22;14501;52.282;10.560;2023-07-09T08:54:33;47.90;53.20
26947;DHT22;14501;52.282;10.560;2023-07-09T08:57:17;47.80;54.80
26947;DHT22;14501;52.282;10.560;2023-07-09T08:59:44;46.50;54.10
26947;DHT22;14501;52.282;10.560;2023-07-09T09:02:33;46.50;55.20
26947;DHT22;14501;52.282;10.560;2023-07-09T09:05:03;46.20;54.30
26947;DHT22;14501;52.282;10.560;2023-07-09T09:07:40;46.20;56.50
26947;DHT22;14501;52.282;10.560;2023-07-09T09:10:13;46.00;53.20
26947;DHT22;14501;52.282;10.560;2023-07-09T09:15:22;46.40;57.40
26947;DHT22;14501;52.282;10.560;2023-07-09T09:17:54;47.00;55.30
26947;DHT22;14501;52.282;10.560;2023-07-09T09:20:22;47.70;54.30
26947;DHT22;14501;52.282;10.560;2023-07-09T09:25:18;48.50;55.60
26947;DHT22;14501;52.282;10.560;2023-07-09T09:27:46;48.40;54.20
26947;DHT22;14501;52.282;10.560;2023-07-09T09:30:20;48.50;51.00
26947;DHT22;14501;52.282;10.560;2023-07-09T09:32:57;48.60;52.80
26947;DHT22;14501;52.282;10.560;2023-07-09T09:35:32;48.40;53.70
26947;DHT22;14501;52.282;10.560;2023-07-09T09:37:59;48.60;53.60
26947;DHT22;14501;52.282;10.560;2023-07-09T09:40:27;48.70;50.80
26947;DHT22;14501;52.282;10.560;2023-07-09T09:42:56;48.40;51.10
26947;DHT22;14501;52.282;10.560;2023-07-09T09:45:34;48.50;50.10
26947;DHT22;14501;52.282;10.560;2023-07-09T09:48:01;48.30;52.00
26947;DHT22;14501;52.282;10.560;2023-07-09T09:50:31;47.90;48.00
26947;DHT22;14501;52.282;10.560;2023-07-09T09:52:58;48.00;51.50
26947;DHT22;14501;52.282;10.560;2023-07-09T09:55:31;46.90;47.70
26947;DHT22;14501;52.282;10.560;2023-07-09T09:57:58;46.20;48.90
26947;DHT22;14501;52.282;10.560;2023-07-09T10:00:26;46.50;50.40
26947;DHT22;14501;52.282;10.560;2023-07-09T10:03:04;46.50;49.30
26947;DHT22;14501;52.282;10.560;2023-07-09T10:05:36;46.50;50.10
26947;DHT22;14501;52.282;10.560;2023-07-09T10:08:36;46.50;48.20
26947;DHT22;14501;52.282;10.560;2023-07-09T10:14:05;46.20;52.30
26947;DHT22;14501;52.282;10.560;2023-07-09T10:16:44;46.10;51.50
26947;DHT22;14501;52.282;10.560;2023-07-09T10:19:21;45.30;48.80
26947;DHT22;14501;52.282;10.560;2023-07-09T10:31:17;44.50;52.30
26947;DHT22;14501;52.282;10.560;2023-07-09T10:41:59;44.20;50.90
26947;DHT22;14501;52.282;10.560;2023-07-09T10:44:35;43.70;51.30
26947;DHT22;14501;52.282;10.560;2023-07-09T10:47:07;42.90;52.80
26947;DHT22;14501;52.282;10.560;2023-07-09T10:49:39;41.20;54.30
26947;DHT22;14501;52.282;10.560;2023-07-09T10:52:30;40.70;54.70
26947;DHT22;14501;52.282;10.560;2023-07-09T10:54:59;39.90;56.10
26947;DHT22;14501;52.282;10.560;2023-07-09T10:57:49;39.10;56.10
26947;DHT22;14501;52.282;10.560;2023-07-09T11:00:19;38.40;57.50
26947;DHT22;14501;52.282;10.560;2023-07-09T11:02:49;38.20;59.00
26947;DHT22;14501;52.282;10.560;2023-07-09T11:05:16;38.10;62.20
26947;DHT22;14501;52.282;10.560;2023-07-09T11:07:52;38.00;59.80
26947;DHT22;14501;52.282;10.560;2023-07-09T11:12:57;37.90;59.40
26947;DHT22;14501;52.282;10.560;2023-07-09T11:15:30;37.60;59.00
26947;DHT22;14501;52.282;10.560;2023-07-09T11:17:57;37.40;57.90
26947;DHT22;14501;52.282;10.560;2023-07-09T11:20:27;37.10;60.70
26947;DHT22;14501;52.282;10.560;2023-07-09T11:28:07;37.50;59.60
26947;DHT22;14501;52.282;10.560;2023-07-09T11:30:46;37.40;62.30
26947;DHT22;14501;52.282;10.560;2023-07-09T11:33:27;37.40;57.90
26947;DHT22;14501;52.282;10.560;2023-07-09T11:36:11;37.30;59.00
26947;DHT22;14501;52.282;10.560;2023-07-09T11:38:46;37.00;60.90
26947;DHT22;14501;52.282;10.560;2023-07-09T11:43:51;36.80;61.70
26947;DHT22;14501;52.282;10.560;2023-07-09T11:46:22;36.90;62.60
26947;DHT22;14501;52.282;10.560;2023-07-09T11:48:49;37.10;61.60
26947;DHT22;14501;52.282;10.560;2023-07-09T11:51:23;37.00;59.60
26947;DHT22;14501;52.282;10.560;2023-07-09T11:53:53;36.60;58.20
26947;DHT22;14501;52.282;10.560;2023-07-09T11:56:24;36.40;60.90
26947;DHT22;14501;52.282;10.560;2023-07-09T11:58:52;36.60;61.20
26947;DHT22;14501;52.282;10.560;2023-07-09T12:01:27;36.70;64.60
26947;DHT22;14501;52.282;10.560;2023-07-09T12:03:53;36.90;58.90
26947;DHT22;14501;52.282;10.560;2023-07-09T12:08:50;36.80;58.60
26947;DHT22;14501;52.282;10.560;2023-07-09T12:13:47;36.80;62.40
26947;DHT22;14501;52.282;10.560;2023-07-09T12:18:52;36.60;60.90
26947;DHT22;14501;52.282;10.560;2023-07-09T12:21:18;36.60;61.60
26947;DHT22;14501;52.282;10.560;2023-07-09T12:26:14;36.50;61.60
26947;DHT22;14501;52.282;10.560;2023-07-09T12:28:40;36.00;59.10
26947;DHT22;14501;52.282;10.560;2023-07-09T12:31:12;35.90;59.80
26947;DHT22;14501;52.282;10.560;2023-07-09T12:33:47;35.60;59.50
26947;DHT22;14501;52.282;10.560;2023-07-09T12:36:14;35.60;61.90
26947;DHT22;14501;52.282;10.560;2023-07-09T12:38:45;35.70;61.40
26947;DHT22;14501;52.282;10.560;2023-07-09T12:41:24;35.70;61.80
26947;DHT22;14501;52.282;10.560;2023-07-09T12:43:51;35.70;61.20
26947;DHT22;14501;52.282;10.560;2023-07-09T12:46:17;35.70;60.10
26947;DHT22;14501;52.282;10.560;2023-07-09T12:48:45;35.70;59.40
26947;DHT22;14501;52.282;10.560;2023-07-09T12:51:15;35.60;60.30
26947;DHT22;14501;52.282;10.560;2023-07-09T12:53:41;35.50;62.50
26947;DHT22;14501;52.282;10.560;2023-07-09T12:56:12;35.60;60.50
26947;DHT22;14501;52.282;10.560;2023-07-09T12:58:39;35.30;60.80
26947;DHT22;14501;52.282;10.560;2023-07-09T13:01:07;35.30;61.60
26947;DHT22;14501;52.282;10.560;2023-07-09T13:03:37;35.20;61.90
26947;DHT22;14501;52.282;10.560;2023-07-09T13:06:05;35.00;61.60
26947;DHT22;14501;52.282;10.560;2023-07-09T13:08:39;35.20;63.00
26947;DHT22;14501;52.282;10.560;2023-07-09T13:11:15;35.20;62.70
26947;DHT22;14501;52.282;10.560;2023-07-09T13:13:40;35.30;63.00
26947;DHT22;14501;52.282;10.560;2023-07-09T13:16:06;35.50;62.90
26947;DHT22;14501;52.282;10.560;2023-07-09T13:18:33;35.50;64.20
26947;DHT22;14501;52.282;10.560;2023-07-09T13:20:59;35.50;64.20
26947;DHT22;14501;52.282;10.560;2023-07-09T13:23:28;35.40;62.40
26947;DHT22;14501;52.282;10.560;2023-07-09T13:25:55;35.30;61.80
26947;DHT22;14501;52.282;10.560;2023-07-09T13:28:26;35.40;64.20
26947;DHT22;14501;52.282;10.560;2023-07-09T13:30:56;35.40;65.40
26947;DHT22;14501;52.282;10.560;2023-07-09T13:33:23;35.40;62.40
26947;DHT22;14501;52.282;10.560;2023-07-09T13:35:48;35.30;61.70
26947;DHT22;14501;52.282;10.560;2023-07-09T13:38:19;35.00;62.50
26947;DHT22;14501;52.282;10.560;2023-07-09T13:40:48;35.50;63.30
26947;DHT22;14501;52.282;10.560;2023-07-09T13:43:18;35.50;68.30
26947;DHT22;14501;52.282;10.560;2023-07-09T13:45:44;35.70;67.60
26947;DHT22;14501;52.282;10.560;2023-07-09T13:50:42;35.60;61.70
26947;DHT22;14501;52.282;10.560;2023-07-09T13:53:19;35.20;61.50
26947;DHT22;14501;52.282;10.560;2023-07-09T13:55:46;35.20;63.20
26947;DHT22;14501;52.282;10.560;2023-07-09T13:58:14;35.20;61.60
26947;DHT22;14501;52.282;10.560;2023-07-09T14:00:42;35.20;62.30
26947;DHT22;14501;52.282;10.560;2023-07-09T14:03:18;35.00;64.50
26947;DHT22;14501;52.282;10.560;2023-07-09T14:08:11;35.30;63.00
26947;DHT22;14501;52.282;10.560;2023-07-09T14:10:37;35.20;63.00
26947;DHT22;14501;52.282;10.560;2023-07-09T14:13:03;35.10;64.90
26947;DHT22;14501;52.282;10.560;2023-07-09T14:15:29;35.00;64.30
26947;DHT22;14501;52.282;10.560;2023-07-09T14:17:55;35.00;64.80
26947;DHT22;14501;52.282;10.560;2023-07-09T14:20:22;35.00;62.90
26947;DHT22;14501;52.282;10.560;2023-07-09T14:22:49;34.80;63.20
26947;DHT22;14501;52.282;10.560;2023-07-09T14:25:25;34.60;65.70
26947;DHT22;14501;52.282;10.560;2023-07-09T14:27:52;34.50;65.20
26947;DHT22;14501;52.282;10.560;2023-07-09T14:30:21;34.50;63.70
26947;DHT22;14501;52.282;10.560;2023-07-09T14:32:48;34.60;65.00
26947;DHT22;14501;52.282;10.560;2023-07-09T14:35:18;34.70;64.20
26947;DHT22;14501;52.282;10.560;2023-07-09T14:37:45;34.80;65.30
26947;DHT22;14501;52.282;10.560;2023-07-09T14:40:11;34.90;63.90
26947;DHT22;14501;52.282;10.560;2023-07-09T14:42:38;34.90;63.20
26947;DHT22;14501;52.282;10.560;2023-07-09T14:45:25;34.80;63.70
26947;DHT22;14501;52.282;10.560;2023-07-09T14:47:53;34.80;65.60
26947;DHT22;14501;52.282;10.560;2023-07-09T14:50:22;34.80;63.70
26947;DHT22;14501;52.282;10.560;2023-07-09T14:55:22;34.80;63.90
26947;DHT22;14501;52.282;10.560;2023-07-09T14:57:50;34.90;64.70
26947;DHT22;14501;52.282;10.560;2023-07-09T15:00:17;34.70;63.60
26947;DHT22;14501;52.282;10.560;2023-07-09T15:02:44;34.70;65.90
26947;DHT22;14501;52.282;10.560;2023-07-09T15:05:22;34.70;64.20
26947;DHT22;14501;52.282;10.560;2023-07-09T15:07:48;34.60;65.20
26947;DHT22;14501;52.282;10.560;2023-07-09T15:10:25;34.50;63.10
26947;DHT22;14501;52.282;10.560;2023-07-09T15:12:52;34.40;65.30
26947;DHT22;14501;52.282;10.560;2023-07-09T15:15:25;34.30;65.00
26947;DHT22;14501;52.282;10.560;2023-07-09T15:17:50;34.30;66.60
26947;DHT22;14501;52.282;10.560;2023-07-09T15:20:19;34.30;66.10
26947;DHT22;14501;52.282;10.560;2023-07-09T15:22:46;34.30;67.50
26947;DHT22;14501;52.282;10.560;2023-07-09T15:25:18;34.20;66.40
26947;DHT22;14501;52.282;10.560;2023-07-09T15:27:44;34.10;66.60
26947;DHT22;14501;52.282;10.560;2023-07-09T15:30:32;33.90;64.60
26947;DHT22;14501;52.282;10.560;2023-07-09T15:33:00;33.90;66.30
26947;DHT22;14501;52.282;10.560;2023-07-09T15:35:32;33.80;66.80
26947;DHT22;14501;52.282;10.560;2023-07-09T15:37:58;33.90;66.50
26947;DHT22;14501;52.282;10.560;2023-07-09T15:40:26;33.70;66.60
26947;DHT22;14501;52.282;10.560;2023-07-09T15:42:57;33.70;66.20
26947;DHT22;14501;52.282;10.560;2023-07-09T15:45:23;33.70;64.50
26947;DHT22;14501;52.282;10.560;2023-07-09T15:47:51;33.60;66.50
26947;DHT22;14501;52.282;10.560;2023-07-09T15:50:20;33.60;67.70
26947;DHT22;14501;52.282;10.560;2023-07-09T15:52:46;33.60;66.60
26947;DHT22;14501;52.282;10.560;2023-07-09T15:55:23;33.60;67.10
26947;DHT22;14501;52.282;10.560;2023-07-09T15:57:51;33.40;66.80
26947;DHT22;14501;52.282;10.560;2023-07-09T16:00:22;33.40;66.80
26947;DHT22;14501;52.282;10.560;2023-07-09T16:02:50;33.40;65.90
26947;DHT22;14501;52.282;10.560;2023-07-09T16:05:25;33.40;67.30
26947;DHT22;14501;52.282;10.560;2023-07-09T16:07:52;33.30;66.70
26947;DHT22;14501;52.282;10.560;2023-07-09T16:10:21;33.30;66.50
26947;DHT22;14501;52.282;10.560;2023-07-09T16:12:47;33.20;67.40
26947;DHT22;14501;52.282;10.560;2023-07-09T16:15:15;33.10;67.50
26947;DHT22;14501;52.282;10.560;2023-07-09T16:17:42;33.10;67.30
26947;DHT22;14501;52.282;10.560;2023-07-09T16:20:13;33.00;67.80
26947;DHT22;14501;52.282;10.560;2023-07-09T16:22:41;32.90;68.50
26947;DHT22;14501;52.282;10.560;2023-07-09T16:25:17;32.90;68.80
26947;DHT22;14501;52.282;10.560;2023-07-09T16:27:44;32.80;69.10
26947;DHT22;14501;52.282;10.560;2023-07-09T16:30:15;32.60;69.00